FYE weather

Fayette County Airport
Somerville, Tennessee, United States

Public forecast

Using degrees Fahrenheit for public forecast. Weather courtesy of forecast.io.

METAR (pilot weather report)

Closest report is Olive Branch Airport, 23.7 nm (43.9 km) SW. Retrieved 2019/08/23 20:50 UTC (32 minutes ago):

KOLV 232050Z 36008KT 10SM FEW040 SCT055 BKN065 30/22 A2995

TAF (pilot weather forecast)

Forecast is more than 6 hours old.

Closest forecast is Memphis International Airport, 30.3 nm (56.0 km) WSW. Retrieved 2019/08/23 12:36 UTC (9 hours ago):

TAF KMEM 231134Z 2312/2418 VRB05KT P6SM FEW009 BKN015 FM231500 30005KT P6SM BKN025 FM231900 03007KT P6SM VCTS BKN035CB BKN120 FM240000 05006KT P6SM SCT040 BKN150 FM240900 05005KT P6SM SCT009 OVC015 TEMPO 2409/2412 5SM BR FM241400 06006KT P6SM BKN025